createdAt,value
2019-04-09T00:00:22.103Z,14.29
2019-04-09T00:05:27.481Z,14.13
2019-04-09T00:10:33.065Z,14.12
2019-04-09T00:15:38.187Z,14.12
2019-04-09T00:20:43.168Z,13.96
2019-04-09T00:25:48.144Z,13.82
2019-04-09T00:30:54.270Z,13.67
2019-04-09T00:35:59.335Z,13.57
2019-04-09T00:41:04.746Z,13.41
2019-04-09T00:46:09.883Z,13.32
2019-04-09T00:51:14.910Z,13.16
2019-04-09T00:56:25.387Z,13.05
2019-04-09T01:01:32.379Z,13.02
2019-04-09T01:06:37.363Z,12.93
2019-04-09T01:11:43.584Z,12.83
2019-04-09T01:16:48.974Z,12.78
2019-04-09T01:21:54.208Z,12.70
2019-04-09T01:27:16.216Z,12.54
2019-04-09T01:32:24.904Z,12.51
2019-04-09T01:37:43.179Z,12.40
2019-04-09T01:43:02.108Z,12.34
2019-04-09T01:48:22.188Z,12.30
2019-04-09T01:53:36.484Z,12.32
2019-04-09T01:59:00.809Z,12.21
2019-04-09T02:04:12.769Z,12.07
2019-04-09T02:09:35.965Z,11.91
2019-04-09T02:15:03.052Z,11.79
2019-04-09T02:20:18.887Z,11.66
2019-04-09T02:25:30.789Z,11.62
2019-04-09T02:30:50.120Z,11.64
2019-04-09T02:36:20.211Z,11.56
2019-04-09T02:41:44.130Z,11.35
2019-04-09T02:47:09.397Z,11.36
2019-04-09T02:52:21.115Z,11.26
2019-04-09T02:57:49.025Z,11.18
2019-04-09T03:03:03.175Z,10.99
2019-04-09T03:08:17.613Z,10.91
2019-04-09T03:13:41.288Z,10.91
2019-04-09T03:19:12.212Z,10.84
2019-04-09T03:24:28.129Z,10.78
2019-04-09T03:29:44.963Z,10.61
2019-04-09T03:35:21.248Z,10.58
2019-04-09T03:40:58.869Z,10.56
2019-04-09T03:46:24.429Z,10.40
2019-04-09T03:51:52.001Z,10.31
2019-04-09T03:57:19.740Z,10.26
2019-04-09T04:02:55.150Z,10.09
2019-04-09T04:08:08.937Z,9.96
2019-04-09T04:13:24.749Z,9.99
2019-04-09T04:18:54.594Z,9.78
2019-04-09T04:24:18.776Z,9.87
2019-04-09T04:29:39.973Z,9.78
2019-04-09T04:35:10.608Z,9.68
2019-04-09T04:40:27.313Z,9.60
2019-04-09T04:45:48.686Z,9.52
2019-04-09T04:51:08.467Z,9.46
2019-04-09T04:56:32.055Z,9.51
2019-04-09T05:02:02.521Z,9.51
2019-04-09T05:07:17.766Z,9.54
2019-04-09T05:12:40.754Z,9.52
2019-04-09T05:18:20.805Z,9.42
2019-04-09T05:23:47.950Z,9.43
2019-04-09T05:29:09.722Z,9.46
2019-04-09T05:34:33.823Z,9.57
2019-04-09T05:40:16.956Z,9.57
2019-04-09T05:45:28.487Z,9.55
2019-04-09T05:50:51.020Z,9.48
2019-04-09T05:56:15.994Z,9.39
2019-04-09T06:01:32.526Z,9.35
2019-04-09T06:07:03.337Z,9.24
2019-04-09T06:12:09.249Z,9.32
2019-04-09T06:17:16.947Z,9.41
2019-04-09T06:22:25.370Z,9.50
2019-04-09T06:27:32.132Z,9.51
2019-04-09T06:33:03.753Z,9.43
2019-04-09T06:38:27.326Z,9.47
2019-04-09T06:50:59.096Z,9.64
2019-04-09T06:56:51.720Z,9.62
2019-04-09T07:02:05.804Z,9.66
2019-04-09T07:07:47.795Z,9.66
2019-04-09T07:13:42.026Z,9.77
2019-04-09T07:18:59.843Z,9.80
2019-04-09T07:24:27.853Z,10.11
2019-04-09T07:29:55.534Z,10.24
2019-04-09T07:35:16.625Z,10.34
2019-04-09T07:40:56.946Z,10.61
2019-04-09T07:46:32.228Z,10.65
2019-04-09T07:51:57.177Z,10.45
2019-04-09T07:57:21.903Z,10.22
2019-04-09T08:02:50.577Z,10.35
2019-04-09T08:08:14.854Z,10.56
2019-04-09T08:13:40.677Z,10.70
2019-04-09T08:19:10.288Z,10.63
2019-04-09T08:24:39.889Z,10.76
2019-04-09T08:30:17.085Z,10.78
2019-04-09T08:35:28.498Z,10.93
2019-04-09T08:41:05.176Z,11.14
2019-04-09T08:46:42.581Z,11.30
2019-04-09T08:52:08.042Z,11.44
2019-04-09T08:57:20.218Z,11.33
2019-04-09T09:02:52.860Z,11.48
2019-04-09T09:08:38.152Z,11.79
2019-04-09T09:13:54.023Z,12.11
2019-04-09T09:19:16.171Z,12.43
2019-04-09T09:24:31.800Z,12.52
2019-04-09T09:29:57.656Z,12.63
2019-04-09T09:35:13.942Z,12.78
2019-04-09T09:40:40.864Z,12.91
2019-04-09T09:45:53.721Z,13.02
2019-04-09T09:51:30.151Z,13.16
2019-04-09T09:56:52.310Z,13.18
2019-04-09T10:02:16.546Z,13.23
2019-04-09T10:08:05.917Z,13.84
2019-04-09T10:13:25.760Z,14.14
2019-04-09T10:18:59.185Z,14.44
2019-04-09T10:24:21.320Z,14.54
2019-04-09T10:29:38.996Z,14.40
2019-04-09T10:34:56.361Z,14.39
2019-04-09T10:40:09.670Z,14.28
2019-04-09T10:45:35.433Z,14.09
2019-04-09T10:50:58.895Z,14.08
2019-04-09T10:56:33.078Z,14.53
2019-04-09T11:02:01.376Z,15.56
2019-04-09T11:07:45.997Z,15.49
2019-04-09T11:13:19.187Z,14.92
2019-04-09T11:18:55.945Z,14.60
2019-04-09T11:24:13.648Z,15.58
2019-04-09T11:29:30.879Z,15.95
2019-04-09T11:35:06.071Z,15.38
2019-04-09T11:40:19.015Z,15.49
2019-04-09T11:45:58.431Z,16.28
2019-04-09T11:51:23.606Z,17.01
2019-04-09T11:56:50.499Z,17.80
2019-04-09T12:02:11.341Z,18.55
2019-04-09T12:07:30.948Z,18.51
2019-04-09T12:12:53.799Z,18.34
2019-04-09T12:18:26.118Z,18.86
2019-04-09T12:23:58.594Z,18.97
2019-04-09T12:29:25.314Z,19.14
2019-04-09T12:34:40.815Z,19.29
2019-04-09T12:40:12.753Z,19.76
2019-04-09T12:45:34.336Z,20.27
2019-04-09T12:50:56.390Z,20.55
2019-04-09T12:56:18.136Z,20.34
2019-04-09T13:01:44.886Z,20.79
2019-04-09T13:07:02.718Z,20.73
2019-04-09T13:12:44.423Z,20.82
2019-04-09T13:18:06.764Z,21.14
2019-04-09T13:23:26.149Z,21.16
2019-04-09T13:28:48.230Z,21.13
2019-04-09T13:34:15.331Z,20.72
2019-04-09T13:39:39.996Z,20.24
2019-04-09T13:45:04.040Z,20.55
2019-04-09T13:55:41.473Z,20.57
2019-04-09T14:00:46.131Z,20.10
2019-04-09T14:05:50.772Z,20.11
2019-04-09T14:10:58.034Z,19.84
2019-04-09T14:16:04.812Z,19.54
2019-04-09T14:21:08.986Z,19.43
2019-04-09T14:26:13.986Z,19.04
2019-04-09T14:31:18.310Z,18.94
2019-04-09T14:36:22.267Z,18.64
2019-04-09T14:41:26.583Z,18.10
2019-04-09T14:46:31.295Z,18.11
2019-04-09T14:51:35.945Z,17.87
2019-04-09T14:56:52.256Z,17.34
2019-04-09T15:01:57.357Z,17.22
2019-04-09T15:07:01.500Z,16.96
2019-04-09T15:12:05.700Z,16.80
2019-04-09T15:17:10.146Z,16.65
2019-04-09T15:22:18.255Z,16.16
2019-04-09T15:27:23.790Z,16.04
2019-04-09T15:32:29.091Z,16.09
2019-04-09T15:37:35.287Z,16.03
2019-04-09T15:42:42.361Z,15.91
2019-04-09T15:47:49.644Z,15.92
2019-04-09T15:53:06.833Z,15.89
2019-04-09T15:58:12.546Z,15.92
2019-04-09T16:03:23.560Z,15.86
2019-04-09T16:08:26.056Z,15.84
2019-04-09T16:13:32.843Z,15.64
2019-04-09T16:18:39.139Z,15.37
2019-04-09T16:23:50.622Z,15.32
2019-04-09T16:28:57.059Z,15.23
2019-04-09T16:34:06.386Z,15.28
2019-04-09T16:39:10.650Z,15.22
2019-04-09T16:44:16.387Z,15.16
2019-04-09T16:49:22.826Z,15.05
2019-04-09T16:54:49.372Z,14.98
2019-04-09T16:59:59.656Z,14.80
2019-04-09T17:05:30.479Z,14.66
2019-04-09T17:10:37.757Z,14.64
2019-04-09T17:15:44.142Z,14.59
2019-04-09T17:20:51.235Z,14.59
2019-04-09T17:26:03.419Z,14.51
2019-04-09T17:31:09.023Z,14.40
2019-04-09T17:36:27.200Z,14.37
2019-04-09T17:41:32.650Z,14.24
2019-04-09T17:47:09.719Z,14.20
2019-04-09T17:52:28.397Z,14.19
2019-04-09T17:57:35.782Z,14.05
2019-04-09T18:02:42.623Z,14.05
2019-04-09T18:07:48.870Z,14.02
2019-04-09T18:13:07.593Z,13.90
2019-04-09T18:18:13.703Z,13.91
2019-04-09T18:23:25.094Z,13.80
2019-04-09T18:28:30.870Z,13.69
2019-04-09T18:33:36.388Z,13.54
2019-04-09T18:38:41.871Z,13.47
2019-04-09T18:44:04.398Z,13.46
2019-04-09T18:49:10.536Z,13.36
2019-04-09T18:54:18.167Z,13.36
2019-04-09T18:59:23.360Z,13.41
2019-04-09T19:04:28.483Z,13.34
2019-04-09T19:09:34.574Z,13.25
2019-04-09T19:14:41.836Z,13.23
2019-04-09T19:19:48.871Z,13.03
2019-04-09T19:24:55.649Z,12.92
2019-04-09T19:30:03.816Z,12.85
2019-04-09T19:35:18.924Z,12.72
2019-04-09T19:40:25.801Z,12.62
2019-04-09T19:45:49.904Z,12.55
2019-04-09T19:50:56.281Z,12.41
2019-04-09T19:56:06.777Z,12.41
2019-04-09T20:01:14.202Z,12.28
2019-04-09T20:06:19.541Z,12.13
2019-04-09T20:11:25.535Z,12.04
2019-04-09T20:16:31.575Z,11.99
2019-04-09T20:21:37.058Z,11.99
2019-04-09T20:26:44.232Z,11.91
2019-04-09T20:31:49.869Z,11.82
2019-04-09T20:36:55.657Z,11.70
2019-04-09T20:42:02.297Z,11.66
2019-04-09T20:47:27.431Z,11.64
2019-04-09T20:52:37.970Z,11.62
2019-04-09T20:57:44.117Z,11.53
2019-04-09T21:03:00.501Z,11.44
2019-04-09T21:08:07.034Z,11.39
2019-04-09T21:13:13.290Z,11.32
2019-04-09T21:18:20.243Z,11.23
2019-04-09T21:23:28.101Z,11.11
2019-04-09T21:28:33.686Z,11.07
2019-04-09T21:33:39.989Z,11.14
2019-04-09T21:38:48.330Z,10.99
2019-04-09T21:43:53.377Z,10.92
2019-04-09T21:49:01.914Z,10.97
2019-04-09T21:54:09.304Z,10.97
2019-04-09T21:59:14.305Z,10.93
2019-04-09T22:04:21.215Z,10.87
2019-04-09T22:09:27.180Z,10.75
2019-04-09T22:14:32.734Z,10.71
2019-04-09T22:19:38.787Z,10.72
2019-04-09T22:24:43.827Z,10.62
2019-04-09T22:29:49.657Z,10.60
2019-04-09T22:34:54.802Z,10.62
2019-04-09T22:39:59.824Z,10.65
2019-04-09T22:45:05.286Z,10.52
2019-04-09T22:50:10.646Z,10.51
2019-04-09T22:55:16.174Z,10.48
2019-04-09T23:00:43.359Z,10.39
2019-04-09T23:06:07.273Z,10.34
2019-04-09T23:11:25.214Z,10.23
2019-04-09T23:16:31.006Z,10.16
2019-04-09T23:21:36.653Z,10.15
2019-04-09T23:26:41.791Z,10.05
2019-04-09T23:31:47.396Z,9.99
2019-04-09T23:36:58.619Z,9.93
2019-04-09T23:42:00.888Z,9.87
2019-04-09T23:47:11.206Z,9.71
2019-04-09T23:52:16.540Z,9.44
2019-04-09T23:57:22.431Z,9.28
